Terminal Aerodrome Forecast
Issued by NWS

Home | Current Version | Previous Version | Text Only | Print | Product List | Glossary Off
Versions: 1 2 3 4 5 6 7 8 9 10 11 12 13 14 15 16 17 18 19 20

000
FTUS43 KABR 181132
TAFATY
TAF
KATY 181132Z 1812/1912 17018G27KT P6SM OVC250
     FM181900 20014G21KT P6SM VCTS BKN080CB
     FM182100 20012KT P6SM OVC100
     FM190000 VRB04KT P6SM BKN120
     FM190300 36010KT P6SM OVC250
     FM190800 01011KT P6SM OVC015=

USA.gov is the U.S. government's official web portal to all federal, state and local government web resources and services.